sensor_id;sensor_type;location;lat;lon;timestamp;P1;durP1;ratioP1;P2;durP2;ratioP2
30519;SDS011;17300;50.374;8.006;2023-04-03T00:01:53;1.63;;;1.37;;
30519;SDS011;17300;50.374;8.006;2023-04-03T00:04:20;1.40;;;1.30;;
30519;SDS011;17300;50.374;8.006;2023-04-03T00:06:47;2.10;;;1.50;;
30519;SDS011;17300;50.374;8.006;2023-04-03T00:09:15;1.87;;;1.33;;
30519;SDS011;17300;50.374;8.006;2023-04-03T00:11:42;1.67;;;1.40;;
30519;SDS011;17300;50.374;8.006;2023-04-03T00:14:08;1.50;;;1.30;;
30519;SDS011;17300;50.374;8.006;2023-04-03T00:16:35;2.53;;;1.47;;
30519;SDS011;17300;50.374;8.006;2023-04-03T00:19:02;4.73;;;4.03;;
30519;SDS011;17300;50.374;8.006;2023-04-03T00:21:28;4.80;;;4.10;;
30519;SDS011;17300;50.374;8.006;2023-04-03T00:23:55;5.40;;;4.50;;
30519;SDS011;17300;50.374;8.006;2023-04-03T00:26:23;4.77;;;4.00;;
30519;SDS011;17300;50.374;8.006;2023-04-03T00:28:50;3.70;;;2.77;;
30519;SDS011;17300;50.374;8.006;2023-04-03T00:31:17;7.17;;;5.97;;
30519;SDS011;17300;50.374;8.006;2023-04-03T00:33:43;6.00;;;4.87;;
30519;SDS011;17300;50.374;8.006;2023-04-03T00:36:10;4.00;;;3.10;;
30519;SDS011;17300;50.374;8.006;2023-04-03T00:38:38;2.83;;;2.40;;
30519;SDS011;17300;50.374;8.006;2023-04-03T00:41:05;3.37;;;2.53;;
30519;SDS011;17300;50.374;8.006;2023-04-03T00:43:33;2.43;;;2.00;;
30519;SDS011;17300;50.374;8.006;2023-04-03T00:46:00;2.77;;;1.90;;
30519;SDS011;17300;50.374;8.006;2023-04-03T00:48:28;1.47;;;1.37;;
30519;SDS011;17300;50.374;8.006;2023-04-03T00:50:57;1.97;;;1.70;;
30519;SDS011;17300;50.374;8.006;2023-04-03T00:53:25;3.13;;;2.50;;
30519;SDS011;17300;50.374;8.006;2023-04-03T00:55:53;4.20;;;3.07;;
30519;SDS011;17300;50.374;8.006;2023-04-03T00:58:22;4.40;;;3.30;;
30519;SDS011;17300;50.374;8.006;2023-04-03T01:00:54;5.13;;;3.83;;
30519;SDS011;17300;50.374;8.006;2023-04-03T01:03:24;7.13;;;5.63;;
30519;SDS011;17300;50.374;8.006;2023-04-03T01:05:50;13.60;;;10.50;;
30519;SDS011;17300;50.374;8.006;2023-04-03T01:08:17;14.10;;;10.83;;
30519;SDS011;17300;50.374;8.006;2023-04-03T01:10:44;7.20;;;5.80;;
30519;SDS011;17300;50.374;8.006;2023-04-03T01:13:18;4.43;;;3.53;;
30519;SDS011;17300;50.374;8.006;2023-04-03T01:15:47;3.13;;;2.20;;
30519;SDS011;17300;50.374;8.006;2023-04-03T01:18:16;4.13;;;2.60;;
30519;SDS011;17300;50.374;8.006;2023-04-03T01:20:46;1.50;;;1.40;;
30519;SDS011;17300;50.374;8.006;2023-04-03T01:23:37;1.90;;;1.37;;
30519;SDS011;17300;50.374;8.006;2023-04-03T01:26:16;4.00;;;3.00;;
30519;SDS011;17300;50.374;8.006;2023-04-03T01:28:43;6.13;;;4.50;;
30519;SDS011;17300;50.374;8.006;2023-04-03T01:31:12;16.93;;;13.43;;
30519;SDS011;17300;50.374;8.006;2023-04-03T01:33:47;23.53;;;17.63;;
30519;SDS011;17300;50.374;8.006;2023-04-03T01:36:16;13.20;;;9.90;;
30519;SDS011;17300;50.374;8.006;2023-04-03T01:38:43;8.13;;;6.37;;
30519;SDS011;17300;50.374;8.006;2023-04-03T01:41:10;7.23;;;5.80;;
30519;SDS011;17300;50.374;8.006;2023-04-03T01:43:37;5.10;;;4.27;;
30519;SDS011;17300;50.374;8.006;2023-04-03T01:46:03;5.50;;;4.07;;
30519;SDS011;17300;50.374;8.006;2023-04-03T01:48:30;3.37;;;3.00;;
30519;SDS011;17300;50.374;8.006;2023-04-03T01:50:58;2.43;;;2.23;;
30519;SDS011;17300;50.374;8.006;2023-04-03T01:53:25;2.60;;;1.80;;
30519;SDS011;17300;50.374;8.006;2023-04-03T01:55:51;2.10;;;1.90;;
30519;SDS011;17300;50.374;8.006;2023-04-03T01:58:18;2.47;;;2.07;;
30519;SDS011;17300;50.374;8.006;2023-04-03T02:00:45;3.70;;;2.20;;
30519;SDS011;17300;50.374;8.006;2023-04-03T02:03:11;2.00;;;1.67;;
30519;SDS011;17300;50.374;8.006;2023-04-03T02:05:38;2.30;;;2.10;;
30519;SDS011;17300;50.374;8.006;2023-04-03T02:08:06;2.47;;;2.03;;
30519;SDS011;17300;50.374;8.006;2023-04-03T02:10:33;1.60;;;1.50;;
30519;SDS011;17300;50.374;8.006;2023-04-03T02:12:59;1.60;;;1.30;;
30519;SDS011;17300;50.374;8.006;2023-04-03T02:15:26;1.30;;;1.20;;
30519;SDS011;17300;50.374;8.006;2023-04-03T02:17:53;1.20;;;1.00;;
30519;SDS011;17300;50.374;8.006;2023-04-03T02:20:19;1.10;;;1.00;;
30519;SDS011;17300;50.374;8.006;2023-04-03T02:22:46;1.73;;;1.40;;
30519;SDS011;17300;50.374;8.006;2023-04-03T02:25:15;1.40;;;1.10;;
30519;SDS011;17300;50.374;8.006;2023-04-03T02:27:42;1.33;;;1.23;;
30519;SDS011;17300;50.374;8.006;2023-04-03T02:30:09;1.20;;;1.10;;
30519;SDS011;17300;50.374;8.006;2023-04-03T02:32:36;1.17;;;1.07;;
30519;SDS011;17300;50.374;8.006;2023-04-03T02:35:03;1.33;;;1.23;;
30519;SDS011;17300;50.374;8.006;2023-04-03T02:37:31;1.43;;;1.33;;
30519;SDS011;17300;50.374;8.006;2023-04-03T02:39:57;1.67;;;1.27;;
30519;SDS011;17300;50.374;8.006;2023-04-03T02:42:25;1.23;;;1.13;;
30519;SDS011;17300;50.374;8.006;2023-04-03T02:44:52;3.80;;;1.50;;
30519;SDS011;17300;50.374;8.006;2023-04-03T02:47:19;2.70;;;1.47;;
30519;SDS011;17300;50.374;8.006;2023-04-03T02:49:45;1.43;;;1.33;;
30519;SDS011;17300;50.374;8.006;2023-04-03T02:52:12;1.43;;;1.33;;
30519;SDS011;17300;50.374;8.006;2023-04-03T02:54:39;2.27;;;1.40;;
30519;SDS011;17300;50.374;8.006;2023-04-03T02:57:06;1.43;;;1.27;;
30519;SDS011;17300;50.374;8.006;2023-04-03T02:59:35;1.63;;;1.03;;
30519;SDS011;17300;50.374;8.006;2023-04-03T03:02:01;1.10;;;1.00;;
30519;SDS011;17300;50.374;8.006;2023-04-03T03:04:28;1.43;;;1.13;;
30519;SDS011;17300;50.374;8.006;2023-04-03T03:06:55;1.67;;;1.30;;
30519;SDS011;17300;50.374;8.006;2023-04-03T03:09:22;2.03;;;1.30;;
30519;SDS011;17300;50.374;8.006;2023-04-03T03:11:48;1.50;;;1.20;;
30519;SDS011;17300;50.374;8.006;2023-04-03T03:14:15;1.30;;;1.20;;
30519;SDS011;17300;50.374;8.006;2023-04-03T03:16:44;1.23;;;1.10;;
30519;SDS011;17300;50.374;8.006;2023-04-03T03:19:10;1.47;;;1.10;;
30519;SDS011;17300;50.374;8.006;2023-04-03T03:21:37;1.40;;;1.30;;
30519;SDS011;17300;50.374;8.006;2023-04-03T03:24:04;1.10;;;1.00;;
30519;SDS011;17300;50.374;8.006;2023-04-03T03:26:31;1.43;;;1.07;;
30519;SDS011;17300;50.374;8.006;2023-04-03T03:28:57;1.23;;;1.13;;
30519;SDS011;17300;50.374;8.006;2023-04-03T03:31:24;1.47;;;1.10;;
30519;SDS011;17300;50.374;8.006;2023-04-03T03:33:52;1.37;;;1.10;;
30519;SDS011;17300;50.374;8.006;2023-04-03T03:36:19;1.97;;;1.37;;
30519;SDS011;17300;50.374;8.006;2023-04-03T03:38:46;2.10;;;1.50;;
30519;SDS011;17300;50.374;8.006;2023-04-03T03:41:12;2.13;;;1.17;;
30519;SDS011;17300;50.374;8.006;2023-04-03T03:43:39;1.97;;;1.37;;
30519;SDS011;17300;50.374;8.006;2023-04-03T03:46:06;1.20;;;1.10;;
30519;SDS011;17300;50.374;8.006;2023-04-03T03:48:32;1.27;;;1.17;;
30519;SDS011;17300;50.374;8.006;2023-04-03T03:51:00;1.83;;;1.30;;
30519;SDS011;17300;50.374;8.006;2023-04-03T03:53:27;1.37;;;1.27;;
30519;SDS011;17300;50.374;8.006;2023-04-03T03:55:53;1.63;;;1.20;;
30519;SDS011;17300;50.374;8.006;2023-04-03T03:58:20;1.73;;;1.20;;
30519;SDS011;17300;50.374;8.006;2023-04-03T04:00:47;1.60;;;1.40;;
30519;SDS011;17300;50.374;8.006;2023-04-03T04:03:13;1.50;;;1.07;;
30519;SDS011;17300;50.374;8.006;2023-04-03T04:05:40;1.20;;;1.10;;
30519;SDS011;17300;50.374;8.006;2023-04-03T04:08:08;1.70;;;1.17;;
30519;SDS011;17300;50.374;8.006;2023-04-03T04:10:35;1.47;;;1.00;;
30519;SDS011;17300;50.374;8.006;2023-04-03T04:13:03;1.50;;;1.27;;
30519;SDS011;17300;50.374;8.006;2023-04-03T04:15:30;1.63;;;1.20;;
30519;SDS011;17300;50.374;8.006;2023-04-03T04:17:56;1.70;;;1.30;;
30519;SDS011;17300;50.374;8.006;2023-04-03T04:20:23;1.20;;;1.00;;
30519;SDS011;17300;50.374;8.006;2023-04-03T04:22:49;1.90;;;1.20;;
30519;SDS011;17300;50.374;8.006;2023-04-03T04:25:18;1.07;;;0.97;;
30519;SDS011;17300;50.374;8.006;2023-04-03T04:27:44;1.40;;;1.10;;
30519;SDS011;17300;50.374;8.006;2023-04-03T04:30:11;1.33;;;0.87;;
30519;SDS011;17300;50.374;8.006;2023-04-03T04:32:39;1.23;;;1.07;;
30519;SDS011;17300;50.374;8.006;2023-04-03T04:35:05;0.97;;;0.87;;
30519;SDS011;17300;50.374;8.006;2023-04-03T04:37:32;2.47;;;1.33;;
30519;SDS011;17300;50.374;8.006;2023-04-03T04:39:59;1.53;;;1.17;;
30519;SDS011;17300;50.374;8.006;2023-04-03T04:42:28;1.80;;;1.07;;
30519;SDS011;17300;50.374;8.006;2023-04-03T04:44:54;1.83;;;1.10;;
30519;SDS011;17300;50.374;8.006;2023-04-03T04:47:21;1.83;;;0.90;;
30519;SDS011;17300;50.374;8.006;2023-04-03T04:49:48;2.27;;;1.03;;
30519;SDS011;17300;50.374;8.006;2023-04-03T04:52:15;2.17;;;0.90;;
30519;SDS011;17300;50.374;8.006;2023-04-03T04:54:41;1.30;;;0.80;;
30519;SDS011;17300;50.374;8.006;2023-04-03T04:57:08;1.70;;;1.07;;
30519;SDS011;17300;50.374;8.006;2023-04-03T04:59:37;1.97;;;0.83;;
30519;SDS011;17300;50.374;8.006;2023-04-03T05:02:03;1.37;;;0.80;;
30519;SDS011;17300;50.374;8.006;2023-04-03T05:04:30;1.67;;;0.90;;
30519;SDS011;17300;50.374;8.006;2023-04-03T05:06:58;3.03;;;0.90;;
30519;SDS011;17300;50.374;8.006;2023-04-03T05:09:24;2.27;;;0.90;;
30519;SDS011;17300;50.374;8.006;2023-04-03T05:11:51;2.60;;;1.23;;
30519;SDS011;17300;50.374;8.006;2023-04-03T05:14:18;2.17;;;1.13;;
30519;SDS011;17300;50.374;8.006;2023-04-03T05:16:46;1.70;;;1.00;;
30519;SDS011;17300;50.374;8.006;2023-04-03T05:19:13;1.47;;;0.90;;
30519;SDS011;17300;50.374;8.006;2023-04-03T05:21:40;2.30;;;1.40;;
30519;SDS011;17300;50.374;8.006;2023-04-03T05:24:06;1.50;;;1.40;;
30519;SDS011;17300;50.374;8.006;2023-04-03T05:26:34;2.40;;;1.20;;
30519;SDS011;17300;50.374;8.006;2023-04-03T05:29:01;2.23;;;1.00;;
30519;SDS011;17300;50.374;8.006;2023-04-03T05:31:30;1.77;;;1.10;;
30519;SDS011;17300;50.374;8.006;2023-04-03T05:33:58;2.20;;;1.13;;
30519;SDS011;17300;50.374;8.006;2023-04-03T05:36:25;1.37;;;1.10;;
30519;SDS011;17300;50.374;8.006;2023-04-03T05:38:51;2.57;;;1.20;;
30519;SDS011;17300;50.374;8.006;2023-04-03T05:41:21;1.50;;;1.07;;
30519;SDS011;17300;50.374;8.006;2023-04-03T05:43:48;1.93;;;1.30;;
30519;SDS011;17300;50.374;8.006;2023-04-03T05:46:15;3.20;;;1.37;;
30519;SDS011;17300;50.374;8.006;2023-04-03T05:48:44;1.73;;;1.00;;
30519;SDS011;17300;50.374;8.006;2023-04-03T05:51:14;2.37;;;1.30;;
30519;SDS011;17300;50.374;8.006;2023-04-03T05:53:42;1.70;;;1.20;;
30519;SDS011;17300;50.374;8.006;2023-04-03T05:56:10;2.70;;;1.30;;
30519;SDS011;17300;50.374;8.006;2023-04-03T05:58:37;2.03;;;1.17;;
30519;SDS011;17300;50.374;8.006;2023-04-03T06:01:04;2.30;;;1.43;;
30519;SDS011;17300;50.374;8.006;2023-04-03T06:03:31;2.77;;;1.53;;
30519;SDS011;17300;50.374;8.006;2023-04-03T06:05:58;2.43;;;1.70;;
30519;SDS011;17300;50.374;8.006;2023-04-03T06:08:26;1.67;;;1.23;;
30519;SDS011;17300;50.374;8.006;2023-04-03T06:10:52;3.20;;;1.70;;
30519;SDS011;17300;50.374;8.006;2023-04-03T06:13:19;3.43;;;1.70;;
30519;SDS011;17300;50.374;8.006;2023-04-03T06:15:47;3.30;;;1.73;;
30519;SDS011;17300;50.374;8.006;2023-04-03T06:18:13;3.53;;;2.10;;
30519;SDS011;17300;50.374;8.006;2023-04-03T06:20:40;2.77;;;1.90;;
30519;SDS011;17300;50.374;8.006;2023-04-03T06:23:07;3.00;;;1.50;;
30519;SDS011;17300;50.374;8.006;2023-04-03T06:25:35;1.60;;;1.17;;
30519;SDS011;17300;50.374;8.006;2023-04-03T06:28:01;2.80;;;1.30;;
30519;SDS011;17300;50.374;8.006;2023-04-03T06:30:28;3.43;;;1.10;;
30519;SDS011;17300;50.374;8.006;2023-04-03T06:32:55;1.60;;;1.07;;
30519;SDS011;17300;50.374;8.006;2023-04-03T06:35:21;2.63;;;1.20;;
30519;SDS011;17300;50.374;8.006;2023-04-03T06:37:49;2.97;;;1.13;;
30519;SDS011;17300;50.374;8.006;2023-04-03T06:40:18;1.40;;;0.80;;
30519;SDS011;17300;50.374;8.006;2023-04-03T06:42:48;2.03;;;0.93;;
30519;SDS011;17300;50.374;8.006;2023-04-03T06:45:16;0.60;;;0.60;;
30519;SDS011;17300;50.374;8.006;2023-04-03T06:47:43;2.17;;;0.83;;
30519;SDS011;17300;50.374;8.006;2023-04-03T06:50:10;1.20;;;0.90;;
30519;SDS011;17300;50.374;8.006;2023-04-03T06:52:39;1.63;;;1.00;;
30519;SDS011;17300;50.374;8.006;2023-04-03T06:55:06;1.57;;;1.10;;
30519;SDS011;17300;50.374;8.006;2023-04-03T06:57:34;1.10;;;0.70;;
30519;SDS011;17300;50.374;8.006;2023-04-03T07:00:03;2.23;;;1.90;;
30519;SDS011;17300;50.374;8.006;2023-04-03T07:02:31;1.60;;;1.27;;
30519;SDS011;17300;50.374;8.006;2023-04-03T07:04:57;1.10;;;1.00;;
30519;SDS011;17300;50.374;8.006;2023-04-03T07:07:24;1.75;;;0.80;;
30519;SDS011;17300;50.374;8.006;2023-04-03T07:09:51;1.92;;;0.98;;
30519;SDS011;17300;50.374;8.006;2023-04-03T07:12:17;1.48;;;1.23;;
30519;SDS011;17300;50.374;8.006;2023-04-03T07:14:44;1.48;;;1.00;;
30519;SDS011;17300;50.374;8.006;2023-04-03T07:17:12;1.20;;;0.77;;
30519;SDS011;17300;50.374;8.006;2023-04-03T07:19:39;1.45;;;1.00;;
30519;SDS011;17300;50.374;8.006;2023-04-03T07:22:05;1.95;;;0.95;;
30519;SDS011;17300;50.374;8.006;2023-04-03T07:24:32;1.45;;;0.90;;
30519;SDS011;17300;50.374;8.006;2023-04-03T07:26:59;2.03;;;1.10;;
30519;SDS011;17300;50.374;8.006;2023-04-03T07:29:27;1.38;;;0.85;;
30519;SDS011;17300;50.374;8.006;2023-04-03T07:31:54;1.52;;;1.20;;
30519;SDS011;17300;50.374;8.006;2023-04-03T07:34:23;1.65;;;0.90;;
30519;SDS011;17300;50.374;8.006;2023-04-03T07:36:49;1.38;;;0.90;;
30519;SDS011;17300;50.374;8.006;2023-04-03T07:39:16;1.48;;;0.90;;
30519;SDS011;17300;50.374;8.006;2023-04-03T07:41:43;1.65;;;0.85;;
30519;SDS011;17300;50.374;8.006;2023-04-03T07:44:10;1.42;;;1.00;;
30519;SDS011;17300;50.374;8.006;2023-04-03T07:46:37;1.48;;;1.00;;
30519;SDS011;17300;50.374;8.006;2023-04-03T07:49:04;2.58;;;1.00;;
30519;SDS011;17300;50.374;8.006;2023-04-03T07:51:32;1.08;;;0.85;;
30519;SDS011;17300;50.374;8.006;2023-04-03T07:54:01;2.08;;;1.27;;
30519;SDS011;17300;50.374;8.006;2023-04-03T07:56:38;1.20;;;0.95;;
30519;SDS011;17300;50.374;8.006;2023-04-03T07:59:05;1.13;;;0.93;;
30519;SDS011;17300;50.374;8.006;2023-04-03T08:01:32;1.48;;;1.10;;
30519;SDS011;17300;50.374;8.006;2023-04-03T08:03:58;2.00;;;1.30;;
30519;SDS011;17300;50.374;8.006;2023-04-03T08:06:25;1.85;;;1.13;;
30519;SDS011;17300;50.374;8.006;2023-04-03T08:08:53;2.20;;;1.20;;
30519;SDS011;17300;50.374;8.006;2023-04-03T08:11:20;2.17;;;1.00;;
30519;SDS011;17300;50.374;8.006;2023-04-03T08:13:48;1.45;;;1.20;;
30519;SDS011;17300;50.374;8.006;2023-04-03T08:16:16;1.65;;;1.00;;
30519;SDS011;17300;50.374;8.006;2023-04-03T08:18:43;1.75;;;1.17;;
30519;SDS011;17300;50.374;8.006;2023-04-03T08:21:11;1.20;;;0.90;;
30519;SDS011;17300;50.374;8.006;2023-04-03T08:23:38;2.67;;;1.30;;
30519;SDS011;17300;50.374;8.006;2023-04-03T08:26:08;1.73;;;1.13;;
30519;SDS011;17300;50.374;8.006;2023-04-03T08:28:35;2.03;;;1.05;;
30519;SDS011;17300;50.374;8.006;2023-04-03T08:31:02;1.77;;;1.10;;
30519;SDS011;17300;50.374;8.006;2023-04-03T08:33:31;1.58;;;1.10;;
30519;SDS011;17300;50.374;8.006;2023-04-03T08:36:00;1.77;;;1.20;;
30519;SDS011;17300;50.374;8.006;2023-04-03T08:38:27;1.48;;;1.08;;
30519;SDS011;17300;50.374;8.006;2023-04-03T08:41:04;1.55;;;1.20;;
30519;SDS011;17300;50.374;8.006;2023-04-03T08:43:41;1.77;;;1.30;;
30519;SDS011;17300;50.374;8.006;2023-04-03T08:46:19;1.60;;;1.00;;
30519;SDS011;17300;50.374;8.006;2023-04-03T08:48:52;1.45;;;1.10;;
30519;SDS011;17300;50.374;8.006;2023-04-03T08:51:20;1.48;;;1.10;;
30519;SDS011;17300;50.374;8.006;2023-04-03T08:53:52;1.77;;;1.10;;
30519;SDS011;17300;50.374;8.006;2023-04-03T08:56:24;1.35;;;0.90;;
30519;SDS011;17300;50.374;8.006;2023-04-03T08:58:52;2.70;;;1.40;;
30519;SDS011;17300;50.374;8.006;2023-04-03T09:01:23;1.55;;;1.00;;
30519;SDS011;17300;50.374;8.006;2023-04-03T09:03:53;1.65;;;1.10;;
30519;SDS011;17300;50.374;8.006;2023-04-03T09:06:20;3.30;;;1.05;;
30519;SDS011;17300;50.374;8.006;2023-04-03T09:08:50;1.75;;;1.00;;
30519;SDS011;17300;50.374;8.006;2023-04-03T09:11:23;2.05;;;1.10;;
30519;SDS011;17300;50.374;8.006;2023-04-03T09:13:54;1.63;;;0.98;;
30519;SDS011;17300;50.374;8.006;2023-04-03T09:16:28;1.60;;;1.20;;
30519;SDS011;17300;50.374;8.006;2023-04-03T09:19:07;1.80;;;1.02;;
30519;SDS011;17300;50.374;8.006;2023-04-03T09:21:43;1.42;;;0.75;;
30519;SDS011;17300;50.374;8.006;2023-04-03T09:24:10;1.50;;;1.10;;
30519;SDS011;17300;50.374;8.006;2023-04-03T09:26:42;1.23;;;0.80;;
30519;SDS011;17300;50.374;8.006;2023-04-03T09:29:14;0.93;;;0.82;;
30519;SDS011;17300;50.374;8.006;2023-04-03T09:31:44;1.67;;;1.10;;
30519;SDS011;17300;50.374;8.006;2023-04-03T09:34:15;1.60;;;0.93;;
30519;SDS011;17300;50.374;8.006;2023-04-03T09:36:48;1.20;;;1.00;;
30519;SDS011;17300;50.374;8.006;2023-04-03T09:39:17;1.30;;;1.00;;
30519;SDS011;17300;50.374;8.006;2023-04-03T09:41:56;1.45;;;0.90;;
30519;SDS011;17300;50.374;8.006;2023-04-03T09:44:25;1.83;;;1.15;;
30519;SDS011;17300;50.374;8.006;2023-04-03T09:46:53;1.17;;;0.90;;
30519;SDS011;17300;50.374;8.006;2023-04-03T09:49:19;1.40;;;1.10;;
30519;SDS011;17300;50.374;8.006;2023-04-03T09:51:46;1.17;;;0.80;;
30519;SDS011;17300;50.374;8.006;2023-04-03T09:54:30;1.00;;;0.75;;
30519;SDS011;17300;50.374;8.006;2023-04-03T09:57:08;1.40;;;0.95;;
30519;SDS011;17300;50.374;8.006;2023-04-03T09:59:37;2.05;;;1.13;;
30519;SDS011;17300;50.374;8.006;2023-04-03T10:02:23;1.30;;;0.98;;
30519;SDS011;17300;50.374;8.006;2023-04-03T10:04:58;1.65;;;1.00;;
30519;SDS011;17300;50.374;8.006;2023-04-03T10:07:29;1.30;;;0.93;;
30519;SDS011;17300;50.374;8.006;2023-04-03T10:09:58;1.38;;;0.98;;
30519;SDS011;17300;50.374;8.006;2023-04-03T10:12:29;1.40;;;0.88;;
30519;SDS011;17300;50.374;8.006;2023-04-03T10:14:57;1.42;;;1.00;;
30519;SDS011;17300;50.374;8.006;2023-04-03T10:17:28;1.70;;;1.08;;
30519;SDS011;17300;50.374;8.006;2023-04-03T10:20:03;1.33;;;1.05;;
30519;SDS011;17300;50.374;8.006;2023-04-03T10:22:40;2.63;;;1.02;;
30519;SDS011;17300;50.374;8.006;2023-04-03T10:25:14;1.75;;;1.05;;
30519;SDS011;17300;50.374;8.006;2023-04-03T10:27:51;1.52;;;1.00;;
30519;SDS011;17300;50.374;8.006;2023-04-03T10:30:27;1.65;;;1.00;;
30519;SDS011;17300;50.374;8.006;2023-04-03T10:33:04;1.13;;;0.90;;
30519;SDS011;17300;50.374;8.006;2023-04-03T10:35:48;1.92;;;0.85;;
30519;SDS011;17300;50.374;8.006;2023-04-03T10:38:24;0.70;;;0.70;;
30519;SDS011;17300;50.374;8.006;2023-04-03T10:40:59;1.40;;;0.70;;
30519;SDS011;17300;50.374;8.006;2023-04-03T10:43:36;2.58;;;0.90;;
30519;SDS011;17300;50.374;8.006;2023-04-03T10:46:09;1.10;;;1.00;;
30519;SDS011;17300;50.374;8.006;2023-04-03T10:48:45;1.33;;;1.08;;
30519;SDS011;17300;50.374;8.006;2023-04-03T10:51:23;1.15;;;0.98;;
30519;SDS011;17300;50.374;8.006;2023-04-03T10:53:55;1.15;;;0.90;;
30519;SDS011;17300;50.374;8.006;2023-04-03T10:56:30;1.15;;;0.77;;
30519;SDS011;17300;50.374;8.006;2023-04-03T10:59:02;0.80;;;0.75;;
30519;SDS011;17300;50.374;8.006;2023-04-03T11:01:40;1.25;;;0.80;;
30519;SDS011;17300;50.374;8.006;2023-04-03T11:04:10;1.02;;;0.80;;
30519;SDS011;17300;50.374;8.006;2023-04-03T11:06:39;1.23;;;0.90;;
30519;SDS011;17300;50.374;8.006;2023-04-03T11:09:11;0.85;;;0.80;;
30519;SDS011;17300;50.374;8.006;2023-04-03T11:11:45;0.95;;;0.85;;
30519;SDS011;17300;50.374;8.006;2023-04-03T11:14:17;0.73;;;0.73;;
30519;SDS011;17300;50.374;8.006;2023-04-03T11:16:52;0.77;;;0.70;;
30519;SDS011;17300;50.374;8.006;2023-04-03T11:19:31;1.40;;;0.82;;
30519;SDS011;17300;50.374;8.006;2023-04-03T11:22:04;0.93;;;0.77;;
30519;SDS011;17300;50.374;8.006;2023-04-03T11:24:37;0.80;;;0.80;;
30519;SDS011;17300;50.374;8.006;2023-04-03T11:27:08;0.70;;;0.70;;
30519;SDS011;17300;50.374;8.006;2023-04-03T11:29:43;1.00;;;0.90;;
30519;SDS011;17300;50.374;8.006;2023-04-03T11:32:18;1.90;;;0.82;;
30519;SDS011;17300;50.374;8.006;2023-04-03T11:35:00;0.90;;;0.90;;
30519;SDS011;17300;50.374;8.006;2023-04-03T11:37:31;1.15;;;0.90;;
30519;SDS011;17300;50.374;8.006;2023-04-03T11:40:01;1.33;;;1.02;;
30519;SDS011;17300;50.374;8.006;2023-04-03T11:42:34;0.90;;;0.80;;
30519;SDS011;17300;50.374;8.006;2023-04-03T11:45:22;1.67;;;1.00;;
30519;SDS011;17300;50.374;8.006;2023-04-03T11:48:02;0.93;;;0.80;;
30519;SDS011;17300;50.374;8.006;2023-04-03T11:50:41;1.20;;;0.90;;
30519;SDS011;17300;50.374;8.006;2023-04-03T11:53:25;0.93;;;0.70;;
30519;SDS011;17300;50.374;8.006;2023-04-03T11:55:56;1.20;;;0.90;;
30519;SDS011;17300;50.374;8.006;2023-04-03T11:58:27;1.77;;;0.83;;
30519;SDS011;17300;50.374;8.006;2023-04-03T12:01:01;1.20;;;1.10;;
30519;SDS011;17300;50.374;8.006;2023-04-03T12:09:31;1.00;;;0.90;;
30519;SDS011;17300;50.374;8.006;2023-04-03T12:12:24;0.93;;;0.80;;
30519;SDS011;17300;50.374;8.006;2023-04-03T12:21:18;0.73;;;0.70;;
30519;SDS011;17300;50.374;8.006;2023-04-03T12:23:56;1.43;;;0.80;;
30519;SDS011;17300;50.374;8.006;2023-04-03T12:26:26;1.20;;;0.87;;
30519;SDS011;17300;50.374;8.006;2023-04-03T12:28:56;1.67;;;1.00;;
30519;SDS011;17300;50.374;8.006;2023-04-03T12:31:24;1.07;;;0.70;;
30519;SDS011;17300;50.374;8.006;2023-04-03T12:36:54;0.80;;;0.77;;
30519;SDS011;17300;50.374;8.006;2023-04-03T12:39:43;1.03;;;0.80;;
30519;SDS011;17300;50.374;8.006;2023-04-03T12:42:23;0.90;;;0.80;;
30519;SDS011;17300;50.374;8.006;2023-04-03T12:45:02;0.73;;;0.73;;
30519;SDS011;17300;50.374;8.006;2023-04-03T12:47:42;1.00;;;0.70;;
30519;SDS011;17300;50.374;8.006;2023-04-03T12:50:16;1.17;;;0.87;;
30519;SDS011;17300;50.374;8.006;2023-04-03T12:52:51;0.70;;;0.70;;
30519;SDS011;17300;50.374;8.006;2023-04-03T12:55:22;0.87;;;0.80;;
30519;SDS011;17300;50.374;8.006;2023-04-03T12:57:49;1.43;;;0.70;;
30519;SDS011;17300;50.374;8.006;2023-04-03T13:00:19;1.10;;;0.80;;
30519;SDS011;17300;50.374;8.006;2023-04-03T13:02:47;1.03;;;0.70;;
30519;SDS011;17300;50.374;8.006;2023-04-03T13:05:15;1.00;;;0.70;;
30519;SDS011;17300;50.374;8.006;2023-04-03T13:07:44;1.03;;;0.73;;
30519;SDS011;17300;50.374;8.006;2023-04-03T13:10:17;1.03;;;0.80;;
30519;SDS011;17300;50.374;8.006;2023-04-03T13:12:45;0.83;;;0.70;;
30519;SDS011;17300;50.374;8.006;2023-04-03T13:15:15;1.10;;;0.80;;
30519;SDS011;17300;50.374;8.006;2023-04-03T13:17:43;1.03;;;0.90;;
30519;SDS011;17300;50.374;8.006;2023-04-03T13:20:12;0.60;;;0.60;;
30519;SDS011;17300;50.374;8.006;2023-04-03T13:22:42;0.67;;;0.60;;
30519;SDS011;17300;50.374;8.006;2023-04-03T13:25:14;1.20;;;0.80;;
30519;SDS011;17300;50.374;8.006;2023-04-03T13:27:43;0.70;;;0.70;;
30519;SDS011;17300;50.374;8.006;2023-04-03T13:30:20;0.67;;;0.50;;
30519;SDS011;17300;50.374;8.006;2023-04-03T13:32:51;0.90;;;0.77;;
30519;SDS011;17300;50.374;8.006;2023-04-03T13:35:29;1.13;;;0.67;;
30519;SDS011;17300;50.374;8.006;2023-04-03T13:37:59;1.93;;;1.13;;
30519;SDS011;17300;50.374;8.006;2023-04-03T13:40:29;1.93;;;0.90;;
30519;SDS011;17300;50.374;8.006;2023-04-03T13:43:00;1.20;;;0.60;;
30519;SDS011;17300;50.374;8.006;2023-04-03T13:45:29;1.47;;;0.60;;
30519;SDS011;17300;50.374;8.006;2023-04-03T13:48:08;1.50;;;1.00;;
30519;SDS011;17300;50.374;8.006;2023-04-03T13:50:51;0.77;;;0.50;;
30519;SDS011;17300;50.374;8.006;2023-04-03T13:53:20;1.13;;;0.80;;
30519;SDS011;17300;50.374;8.006;2023-04-03T13:56:04;1.37;;;0.70;;
30519;SDS011;17300;50.374;8.006;2023-04-03T13:58:33;0.63;;;0.50;;
30519;SDS011;17300;50.374;8.006;2023-04-03T14:01:06;1.20;;;0.73;;
30519;SDS011;17300;50.374;8.006;2023-04-03T14:03:38;0.73;;;0.70;;
30519;SDS011;17300;50.374;8.006;2023-04-03T14:06:09;0.97;;;0.60;;
30519;SDS011;17300;50.374;8.006;2023-04-03T14:08:37;1.77;;;0.70;;
30519;SDS011;17300;50.374;8.006;2023-04-03T14:11:08;0.90;;;0.60;;
30519;SDS011;17300;50.374;8.006;2023-04-03T14:13:39;0.40;;;0.40;;
30519;SDS011;17300;50.374;8.006;2023-04-03T14:16:06;0.57;;;0.50;;
30519;SDS011;17300;50.374;8.006;2023-04-03T14:18:32;0.70;;;0.70;;
30519;SDS011;17300;50.374;8.006;2023-04-03T14:20:59;1.23;;;0.77;;
30519;SDS011;17300;50.374;8.006;2023-04-03T14:23:26;1.13;;;0.60;;
30519;SDS011;17300;50.374;8.006;2023-04-03T14:25:52;1.13;;;0.63;;
30519;SDS011;17300;50.374;8.006;2023-04-03T14:28:21;1.23;;;0.70;;
30519;SDS011;17300;50.374;8.006;2023-04-03T14:30:49;0.83;;;0.57;;
30519;SDS011;17300;50.374;8.006;2023-04-03T14:33:17;0.60;;;0.60;;
30519;SDS011;17300;50.374;8.006;2023-04-03T14:35:46;1.10;;;0.60;;
30519;SDS011;17300;50.374;8.006;2023-04-03T14:38:20;1.23;;;0.70;;
30519;SDS011;17300;50.374;8.006;2023-04-03T14:40:50;1.23;;;0.63;;
30519;SDS011;17300;50.374;8.006;2023-04-03T14:43:17;0.60;;;0.60;;
30519;SDS011;17300;50.374;8.006;2023-04-03T14:45:46;1.27;;;0.70;;
30519;SDS011;17300;50.374;8.006;2023-04-03T14:48:15;1.20;;;0.60;;
30519;SDS011;17300;50.374;8.006;2023-04-03T14:50:44;0.83;;;0.50;;
30519;SDS011;17300;50.374;8.006;2023-04-03T14:53:11;1.13;;;0.57;;
30519;SDS011;17300;50.374;8.006;2023-04-03T14:55:40;2.47;;;0.60;;
30519;SDS011;17300;50.374;8.006;2023-04-03T14:58:11;0.83;;;0.50;;
30519;SDS011;17300;50.374;8.006;2023-04-03T15:00:40;0.53;;;0.50;;
30519;SDS011;17300;50.374;8.006;2023-04-03T15:03:11;1.47;;;0.60;;
30519;SDS011;17300;50.374;8.006;2023-04-03T15:05:39;0.77;;;0.50;;
30519;SDS011;17300;50.374;8.006;2023-04-03T15:08:08;0.57;;;0.57;;
30519;SDS011;17300;50.374;8.006;2023-04-03T15:10:46;0.70;;;0.70;;
30519;SDS011;17300;50.374;8.006;2023-04-03T15:13:14;1.03;;;0.60;;
30519;SDS011;17300;50.374;8.006;2023-04-03T15:15:41;0.97;;;0.73;;
30519;SDS011;17300;50.374;8.006;2023-04-03T15:18:11;0.80;;;0.53;;